Bavaria

Go HERE for most recent data if this page is not up to date.

Jump to table bottom
Date Time Temp F RH % AVG Wind Max Wind Wind Dir 24 Snow Depth
02/25 01:00 23.0 62 5 14 NW - 308 0.1 40.2
02/25 00:00 23.4 61 4 12 W - 250 0.1 39.9
02/24 23:00 23.6 62 5 12 W - 272 0.0 39.7
02/24 22:00 24.2 60 4 10 NW - 294 0.1 39.9
02/24 21:00 24.5 58 4 10 W - 279 0.1 39.8
02/24 20:00 24.6 58 4 10 NW - 317 0.1 40.1
02/24 19:00 24.3 59 4 10 W - 266 0.1 39.8
02/24 18:00 24.5 59 3 9 S - 196 0.0 39.8
02/24 17:00 25.0 59 3 9 SW - 234 -0.0 39.6
02/24 16:00 27.6 54 2 6 NW - 304 -0.1 39.9
02/24 15:00 31.6 44 3 10 NW - 295 2.6 40.0
02/24 14:00 29.7 46 3 9 W - 252 2.5 40.4
02/24 13:00 29.4 47 3 11 SE - 121 2.5 39.9
02/24 12:00 28.9 47 4 13 SW - 227 2.6 41.0
02/24 11:00 25.5 54 4 11 SW - 244 2.8 41.2
02/24 10:00 22.5 60 4 10 W - 253 2.8 41.6
02/24 09:00 23.9 58 5 12 SW - 247 2.9 41.8
02/24 08:00 20.9 61 5 18 W - 253 2.6 41.8
02/24 07:00 19.6 63 4 9 NW - 324 2.4 41.5
02/24 06:00 19.2 65 5 16 W - 255 2.3 41.9
02/24 05:00 18.6 66 5 11 N - 3 2.1 41.5
02/24 04:00 18.3 67 5 9 W - 279 1.7 42.0
02/24 03:00 18.7 64 4 9 S - 167 1.0 42.1
02/24 02:00 18.5 61 5 10 W - 248 0.6 41.8
02/24 01:00 19.2 60 4 10 W - 278 0.2 41.9
02/24 00:00 19.1 60 4 11 NW - 324 0.2 41.3
.